Time;durP1;ratioP1;P1;durP2;ratioP2;P2;SDS_P1;SDS_P2;PMS_P1;PMS_P2;Temp;Humidity;BMP_temperature;BMP_pressure;BME280_temperature;BME280_humidity;BME280_pressure;Samples;Min_cycle;Max_cycle;Signal;HPM_P1;HPM_P2
2023/05/22 00:01:36;;;;;;;9.98;6.70;;;;;;;17.24;76.54;99055.06;5034816;28;20112;-87
2023/05/22 00:04:04;;;;;;;9.90;7.05;;;;;;;17.16;76.42;99036.44;5035049;28;20028;-87
2023/05/22 00:06:33;;;;;;;17.02;6.57;;;;;;;17.16;76.80;99049.75;5034806;28;20033;-87
2023/05/22 00:08:58;;;;;;;8.30;6.07;;;;;;;17.24;76.32;99060.72;5035649;28;20025;-86
2023/05/22 00:11:24;;;;;;;10.68;6.30;;;;;;;17.13;76.57;99054.16;5035054;28;20056;-86
2023/05/22 00:13:50;;;;;;;10.00;6.05;;;;;;;17.00;77.34;99061.31;5034453;28;20044;-87
2023/05/22 00:16:16;;;;;;;9.10;6.22;;;;;;;17.05;77.26;99047.63;5021862;28;20542;-87
2023/05/22 00:18:41;;;;;;;10.38;6.95;;;;;;;17.00;77.45;99045.19;5032556;28;20119;-87
2023/05/22 00:21:10;;;;;;;10.05;6.80;;;;;;;16.89;77.30;99028.09;5033303;28;20024;-86
2023/05/22 00:23:35;;;;;;;10.25;6.50;;;;;;;17.04;77.45;99048.03;5033390;28;20021;-87
2023/05/22 00:26:01;;;;;;;11.27;6.22;;;;;;;17.06;77.14;99048.47;5036201;28;20032;-87
2023/05/22 00:28:27;;;;;;;12.30;6.95;;;;;;;17.14;77.13;99058.63;5050892;28;20017;-87
2023/05/22 00:30:53;;;;;;;11.07;6.65;;;;;;;17.10;77.46;99057.78;5049388;28;20459;-87
2023/05/22 00:33:18;;;;;;;7.80;6.45;;;;;;;16.96;78.24;99061.25;5033288;28;20036;-87
2023/05/22 00:35:44;;;;;;;9.45;6.30;;;;;;;17.00;77.82;99056.47;5032466;28;20021;-87
2023/05/22 00:38:26;;;;;;;9.90;6.97;;;;;;;17.07;78.11;99058.56;5033116;28;20025;-86
2023/05/22 00:40:52;;;;;;;9.32;6.50;;;;;;;16.84;79.02;99043.41;5024116;28;20025;-87
2023/05/22 00:43:17;;;;;;;11.63;6.88;;;;;;;16.95;79.45;99065.25;5013918;28;20036;-87
2023/05/22 00:45:44;;;;;;;10.15;6.13;;;;;;;16.89;79.53;99061.19;5013741;28;20029;-86
2023/05/22 00:48:11;;;;;;;10.10;6.53;;;;;;;16.78;79.39;99038.50;5032033;28;20481;-87
2023/05/22 00:50:36;;;;;;;18.90;7.07;;;;;;;16.96;79.11;99059.25;5029110;28;20176;-87
2023/05/22 00:53:02;;;;;;;15.52;6.72;;;;;;;16.95;79.53;99062.44;5026259;28;20111;-87
2023/05/22 00:55:27;;;;;;;8.70;7.28;;;;;;;16.89;79.43;99052.72;5032607;28;20025;-87
2023/05/22 00:57:53;;;;;;;8.45;6.85;;;;;;;16.92;79.86;99060.41;5026637;28;20158;-86
2023/05/22 01:00:20;;;;;;;16.33;7.10;;;;;;;16.75;81.14;99057.00;5041867;28;20179;-87
2023/05/22 01:02:45;;;;;;;16.67;8.73;;;;;;;16.68;80.74;99046.47;5035236;28;20482;-87
2023/05/22 01:05:11;;;;;;;15.10;7.75;;;;;;;16.76;80.70;99053.00;5034485;28;20032;-87
2023/05/22 01:07:37;;;;;;;9.07;6.68;;;;;;;16.51;82.07;99052.69;5032055;28;20036;-86
2023/05/22 01:10:04;;;;;;;10.43;7.50;;;;;;;16.50;82.28;99054.72;5032958;28;20018;-86
2023/05/22 01:12:40;;;;;;;11.38;8.05;;;;;;;16.60;81.67;99061.69;5036514;28;20183;-86
2023/05/22 01:15:38;;;;;;;8.85;6.97;;;;;;;16.59;81.48;99059.25;5034714;28;20071;-87
2023/05/22 01:18:18;;;;;;;14.35;8.40;;;;;;;16.42;83.21;99061.47;5034075;28;20555;-86
2023/05/22 01:20:50;;;;;;;;;;;;;;;16.44;83.10;99066.75;5024321;28;20075;-87
2023/05/22 01:23:18;;;;;;;14.15;7.18;;;;;;;16.48;83.01;99059.13;5033808;28;19919;-87
2023/05/22 01:26:08;;;;;;;12.30;8.48;;;;;;;16.47;82.89;99051.84;5031865;28;20503;-87
2023/05/22 01:29:14;;;;;;;13.27;7.40;;;;;;;16.48;83.53;99059.13;5017419;28;20026;-86
2023/05/22 01:31:42;;;;;;;13.38;8.75;;;;;;;16.54;82.54;99049.13;5017882;28;20421;-86
2023/05/22 01:34:10;;;;;;;12.27;8.82;;;;;;;16.54;82.05;99051.94;5017959;28;20124;-86
2023/05/22 01:36:37;;;;;;;12.45;9.25;;;;;;;16.40;82.91;99052.59;5018323;28;20033;-86
2023/05/22 01:39:05;;;;;;;9.73;7.68;;;;;;;16.39;82.76;99039.69;5021863;28;20025;-87
2023/05/22 01:41:34;;;;;;;8.40;6.97;;;;;;;16.44;82.55;99041.34;5035253;28;20120;-87
2023/05/22 01:44:00;;;;;;;10.98;7.75;;;;;;;16.48;82.62;99037.38;5053705;28;20048;-86
2023/05/22 01:46:30;;;;;;;10.43;7.38;;;;;;;16.55;82.33;99039.47;5034856;28;20099;-87
2023/05/22 01:48:56;;;;;;;13.93;8.63;;;;;;;16.34;84.53;99049.28;5053573;28;20460;-87
2023/05/22 01:51:30;;;;;;;10.13;8.23;;;;;;;16.48;83.36;99043.03;5040380;28;20067;-87
2023/05/22 01:54:13;;;;;;;12.50;8.18;;;;;;;16.45;83.71;99051.44;5046378;28;20083;-87
2023/05/22 01:57:05;;;;;;;16.95;8.68;;;;;;;16.50;82.77;99042.59;5020670;28;20056;-87
2023/05/22 01:59:53;;;;;;;11.13;8.77;;;;;;;16.51;82.56;99047.06;4988587;28;20099;-87
2023/05/22 02:02:20;;;;;;;12.18;8.30;;;;;;;16.59;82.38;99045.94;5018632;28;20037;-87
2023/05/22 02:04:54;;;;;;;12.20;7.80;;;;;;;16.65;82.52;99046.41;5014780;28;20516;-87
2023/05/22 02:07:23;;;;;;;20.33;8.70;;;;;;;16.64;82.17;99053.25;5021653;28;20060;-87
2023/05/22 02:09:50;;;;;;;10.07;6.82;;;;;;;16.63;81.69;99043.97;5035618;28;20028;-86
2023/05/22 02:12:16;;;;;;;11.05;7.95;;;;;;;16.57;81.19;99051.19;5026231;28;20556;-86
2023/05/22 02:14:42;;;;;;;14.80;7.70;;;;;;;16.58;80.98;99047.16;5015692;28;20029;-87
2023/05/22 02:17:08;;;;;;;13.18;6.88;;;;;;;16.64;80.63;99051.22;5030922;28;20036;-87
2023/05/22 02:19:36;;;;;;;13.80;6.93;;;;;;;16.62;80.40;99050.81;5016396;28;20026;-87
2023/05/22 02:22:05;;;;;;;10.13;7.45;;;;;;;16.72;80.38;99057.78;5015252;28;20037;-87
2023/05/22 02:24:31;;;;;;;16.55;7.82;;;;;;;16.67;80.31;99056.13;5021069;28;20552;-86
2023/05/22 02:26:57;;;;;;;11.52;6.38;;;;;;;16.67;80.45;99060.94;5043183;28;20067;-86
2023/05/22 02:29:22;;;;;;;18.60;8.98;;;;;;;16.45;81.09;99048.63;5036441;28;20049;-87
2023/05/22 02:31:48;;;;;;;17.70;7.45;;;;;;;16.26;82.48;99061.69;5016511;28;20025;-86
2023/05/22 02:34:14;;;;;;;14.93;7.57;;;;;;;16.23;82.78;99060.47;5032113;28;20028;-86
2023/05/22 02:36:39;;;;;;;12.65;7.18;;;;;;;16.19;82.98;99053.94;5019484;28;20071;-87
2023/05/22 02:39:05;;;;;;;20.33;8.88;;;;;;;16.25;82.92;99058.06;5030678;28;20485;-87
2023/05/22 02:41:30;;;;;;;19.88;9.32;;;;;;;16.36;83.32;99063.03;5014914;28;20032;-87
2023/05/22 02:43:56;;;;;;;17.25;9.38;;;;;;;16.44;83.12;99049.81;5032691;28;20101;-86
2023/05/22 02:46:21;;;;;;;11.48;8.73;;;;;;;16.41;83.13;99054.22;5023058;28;20025;-86
2023/05/22 02:48:47;;;;;;;19.77;8.80;;;;;;;16.44;83.02;99049.81;5032584;28;20394;-87
2023/05/22 02:51:12;;;;;;;19.92;9.35;;;;;;;16.47;82.96;99040.56;5022626;28;20145;-87
2023/05/22 02:53:40;;;;;;;24.15;9.98;;;;;;;16.55;82.94;99053.56;5031452;28;20031;-87
2023/05/22 02:56:11;;;;;;;16.90;9.35;;;;;;;16.56;82.71;99052.38;5033608;28;20106;-86
2023/05/22 02:58:38;;;;;;;19.33;9.82;;;;;;;16.58;82.22;99052.78;5033203;28;20036;-86
2023/05/22 03:01:07;;;;;;;17.48;9.35;;;;;;;16.63;82.14;99055.25;5051860;28;20082;-86
2023/05/22 03:03:33;;;;;;;11.00;7.13;;;;;;;16.62;82.11;99050.81;5019424;28;20017;-86
2023/05/22 03:06:00;;;;;;;25.23;8.50;;;;;;;16.58;82.59;99051.97;5051206;28;20032;-86
2023/05/22 03:08:27;;;;;;;12.35;7.63;;;;;;;16.46;82.69;99044.59;5034260;28;20021;-87
2023/05/22 03:10:54;;;;;;;35.38;9.32;;;;;;;16.40;83.68;99059.03;5052201;28;20021;-86
2023/05/22 03:13:20;;;;;;;15.13;9.43;;;;;;;16.34;84.17;99060.59;5034157;28;20580;-86
2023/05/22 03:15:45;;;;;;;16.00;10.93;;;;;;;16.28;84.07;99056.47;5033622;28;20025;-86
2023/05/22 03:18:11;;;;;;;18.50;10.55;;;;;;;16.35;84.21;99062.19;5033364;28;20033;-86
2023/05/22 03:20:37;;;;;;;25.67;10.27;;;;;;;15.69;86.26;99054.06;5029310;28;20082;-87
2023/05/22 03:23:04;;;;;;;20.85;10.48;;;;;;;15.26;89.24;99059.78;5034030;28;20448;-86
2023/05/22 03:25:29;;;;;;;14.85;10.30;;;;;;;15.35;90.17;99049.09;5051827;28;20470;-86
2023/05/22 03:27:54;;;;;;;17.15;10.23;;;;;;;15.52;88.96;99056.19;5033460;28;20124;-87
2023/05/22 03:30:20;;;;;;;13.15;9.57;;;;;;;15.48;89.10;99055.34;5030376;28;20127;-87
2023/05/22 03:32:45;;;;;;;16.40;10.27;;;;;;;15.41;88.63;99035.50;5051955;28;20032;-87
2023/05/22 03:35:14;;;;;;;26.20;9.57;;;;;;;15.55;87.96;99061.06;5046303;28;20068;-87
2023/05/22 03:37:39;;;;;;;17.15;9.82;;;;;;;15.58;87.22;99031.31;5029496;28;20032;-87
2023/05/22 03:40:06;;;;;;;16.83;10.30;;;;;;;15.73;86.58;99052.09;5048897;28;20108;-87
2023/05/22 03:42:31;;;;;;;18.40;10.35;;;;;;;15.76;86.16;99045.69;5033891;28;20124;-86
2023/05/22 03:44:57;;;;;;;20.48;10.60;;;;;;;15.70;85.90;99024.66;5019895;28;20108;-87
2023/05/22 03:47:22;;;;;;;18.63;10.88;;;;;;;15.75;85.48;99031.94;5027251;28;20029;-87
2023/05/22 03:49:48;;;;;;;19.30;11.95;;;;;;;15.63;86.95;99061.19;5033776;28;20561;-87
2023/05/22 03:52:13;;;;;;;27.65;11.13;;;;;;;15.82;86.35;99058.28;5025479;28;20418;-86
2023/05/22 03:54:39;;;;;;;15.60;10.27;;;;;;;15.93;85.92;99057.66;5013874;28;20022;-87
2023/05/22 03:57:04;;;;;;;23.30;11.88;;;;;;;16.02;85.74;99066.59;5018610;28;20045;-86
2023/05/22 03:59:30;;;;;;;19.45;11.88;;;;;;;16.09;85.48;99063.91;5033692;28;20086;-87
2023/05/22 04:01:57;;;;;;;21.63;12.95;;;;;;;16.12;85.32;99068.78;5028109;28;20055;-87
2023/05/22 04:04:25;;;;;;;19.67;11.95;;;;;;;15.64;88.50;99065.63;5014330;28;20084;-85
2023/05/22 04:06:51;;;;;;;26.92;14.30;;;;;;;15.36;90.67;99050.72;5026612;28;20032;-87
2023/05/22 04:09:17;;;;;;;17.88;11.75;;;;;;;15.21;92.91;99060.13;5018806;28;20022;-86
2023/05/22 04:11:42;;;;;;;32.95;13.18;;;;;;;15.38;93.36;99070.06;5045874;28;20493;-87
2023/05/22 04:14:08;;;;;;;19.98;12.30;;;;;;;15.52;92.52;99061.03;5018964;28;20518;-86
2023/05/22 04:16:34;;;;;;;25.73;13.32;;;;;;;15.60;93.64;99079.66;5028855;28;20048;-85
2023/05/22 04:19:02;;;;;;;26.83;12.95;;;;;;;15.33;95.67;99076.03;5051204;28;20032;-86
2023/05/22 04:21:34;;;;;;;19.85;12.40;;;;;;;14.94;98.67;99069.31;5022559;28;20064;-86
2023/05/22 04:24:01;;;;;;;21.10;11.63;;;;;;;15.21;99.01;99082.66;5028477;28;20108;-86
2023/05/22 04:26:30;;;;;;;15.98;10.25;;;;;;;15.41;97.42;99075.78;5027418;28;20032;-88
2023/05/22 04:28:56;;;;;;;21.23;11.98;;;;;;;15.35;98.91;99073.66;5036168;28;20489;-89
2023/05/22 04:31:21;;;;;;;53.15;17.20;;;;;;;15.68;97.32;99081.41;5025013;28;20119;-90
2023/05/22 04:33:48;;;;;;;29.00;11.63;;;;;;;15.54;95.66;99055.84;5020584;28;20022;-89
2023/05/22 04:36:14;;;;;;;19.27;11.05;;;;;;;15.71;95.08;99083.47;5037063;28;20393;-89
2023/05/22 04:38:40;;;;;;;28.95;12.32;;;;;;;15.64;95.04;99086.19;5053490;28;20059;-89
2023/05/22 04:41:07;;;;;;;20.77;10.85;;;;;;;15.78;94.63;99079.94;5028997;28;20020;-89
2023/05/22 04:43:33;;;;;;;15.68;10.77;;;;;;;15.81;94.54;99073.56;5022347;28;20032;-89
2023/05/22 04:45:59;;;;;;;18.77;11.13;;;;;;;15.89;94.52;99082.09;5025296;28;20025;-88
2023/05/22 04:48:24;;;;;;;18.02;10.05;;;;;;;15.98;95.20;99077.84;5037481;28;20108;-88
2023/05/22 04:50:50;;;;;;;23.20;10.88;;;;;;;16.09;94.30;99082.81;5035878;28;20041;-89
2023/05/22 04:53:16;;;;;;;23.27;11.60;;;;;;;16.30;92.06;99075.84;5022963;28;20465;-89
2023/05/22 04:55:43;;;;;;;35.10;11.05;;;;;;;16.48;89.64;99079.72;5016615;28;20068;-89
2023/05/22 04:58:09;;;;;;;24.05;10.35;;;;;;;16.20;89.05;99080.16;5030471;28;20059;-88
2023/05/22 05:00:34;;;;;;;15.05;9.40;;;;;;;16.37;87.82;99082.38;5027618;28;20020;-90
2023/05/22 05:03:00;;;;;;;23.42;10.48;;;;;;;16.14;88.25;99080.47;5021907;28;20029;-89
2023/05/22 05:05:25;;;;;;;19.05;10.18;;;;;;;15.97;89.96;99081.84;5021122;28;20041;-90
2023/05/22 05:07:52;;;;;;;21.70;10.63;;;;;;;15.82;89.08;99060.25;5016958;28;20513;-90
2023/05/22 05:10:17;;;;;;;17.13;10.30;;;;;;;16.03;88.73;99079.50;5025266;28;20082;-89
2023/05/22 05:12:43;;;;;;;19.25;11.15;;;;;;;16.02;88.71;99083.53;5032689;28;20024;-90
2023/05/22 05:15:08;;;;;;;18.45;11.13;;;;;;;16.10;88.34;99073.16;5025625;28;20037;-89
2023/05/22 05:17:34;;;;;;;23.30;11.43;;;;;;;16.07;89.40;99085.22;5017205;28;20025;-89
2023/05/22 05:19:59;;;;;;;16.83;11.73;;;;;;;16.10;89.07;99076.81;5018314;28;20030;-89
2023/05/22 05:22:25;;;;;;;17.27;12.13;;;;;;;16.10;89.84;99090.91;5024451;28;20021;-90
2023/05/22 05:24:50;;;;;;;20.65;11.27;;;;;;;15.79;92.07;99075.94;5016767;28;20095;-88
2023/05/22 05:27:16;;;;;;;22.25;11.77;;;;;;;15.85;93.17;99082.88;5026031;28;20032;-89
2023/05/22 05:29:41;;;;;;;18.38;10.82;;;;;;;15.78;92.59;99057.38;5045159;28;20094;-90
2023/05/22 05:32:08;;;;;;;13.05;9.27;;;;;;;16.14;92.33;99094.59;5023952;28;20080;-89
2023/05/22 05:34:34;;;;;;;21.80;10.82;;;;;;;16.26;91.53;99095.53;5018949;28;20052;-89
2023/05/22 05:37:01;;;;;;;20.63;10.40;;;;;;;16.34;91.66;99087.97;5031898;28;20033;-89
2023/05/22 05:39:27;;;;;;;19.05;10.60;;;;;;;16.61;91.88;99091.53;5034904;28;20436;-90
2023/05/22 05:41:53;;;;;;;14.18;9.82;;;;;;;16.87;89.51;99097.47;5020586;28;20029;-87
2023/05/22 05:44:18;;;;;;;18.52;8.93;;;;;;;17.06;86.41;99091.63;5020888;28;20049;-86
2023/05/22 05:46:43;;;;;;;11.60;7.32;;;;;;;17.10;83.13;99100.16;5021679;28;20505;-85
2023/05/22 05:49:10;;;;;;;14.07;7.70;;;;;;;17.12;81.44;99100.56;5016547;28;21221;-87
2023/05/22 05:51:36;;;;;;;11.73;8.27;;;;;;;17.06;81.25;99113.44;5018151;28;20025;-86
2023/05/22 05:54:02;;;;;;;29.35;8.40;;;;;;;17.09;81.43;99099.34;5019723;28;20087;-85
2023/05/22 05:56:28;;;;;;;15.20;7.22;;;;;;;16.93;78.57;99096.75;5018902;28;20522;-87
2023/05/22 05:58:53;;;;;;;13.70;7.07;;;;;;;17.02;78.66;99104.13;5027103;28;20498;-90
2023/05/22 06:01:19;;;;;;;14.32;7.78;;;;;;;17.05;79.57;99089.22;5030589;28;20057;-86
2023/05/22 06:03:44;;;;;;;10.15;8.07;;;;;;;17.04;81.42;99118.69;5040763;28;20032;-84
2023/05/22 06:06:11;;;;;;;19.08;7.85;;;;;;;17.10;82.91;99111.47;5028843;28;20143;-86
2023/05/22 06:08:37;;;;;;;19.20;8.38;;;;;;;17.14;82.99;99106.66;5028596;28;20112;-87
2023/05/22 06:11:02;;;;;;;13.27;8.43;;;;;;;17.36;83.44;99106.84;5024194;28;20125;-86
2023/05/22 06:13:28;;;;;;;23.25;13.18;;;;;;;17.25;80.92;99113.25;5022478;28;20102;-86
2023/05/22 06:15:54;;;;;;;14.25;9.07;;;;;;;17.48;80.55;99103.72;5023095;28;20021;-87
2023/05/22 06:18:20;;;;;;;9.70;7.40;;;;;;;17.64;79.45;99119.63;5021390;28;20108;-85
2023/05/22 06:20:45;;;;;;;20.80;9.50;;;;;;;17.31;80.67;99115.69;5027045;28;20124;-86
2023/05/22 06:23:11;;;;;;;14.90;9.30;;;;;;;17.28;81.26;99114.44;5019858;28;20169;-86
2023/05/22 06:25:38;;;;;;;17.33;9.27;;;;;;;17.18;82.32;99121.63;5019773;28;20022;-86
2023/05/22 06:28:05;;;;;;;18.42;10.18;;;;;;;17.54;81.53;99136.09;5023890;28;21706;-86
2023/05/22 06:30:30;;;;;;;15.93;9.65;;;;;;;17.65;80.80;99143.88;5029193;28;20052;-85
2023/05/22 06:32:56;;;;;;;15.00;8.52;;;;;;;17.72;79.53;99141.06;5021431;28;20040;-86
2023/05/22 06:35:21;;;;;;;21.52;8.52;;;;;;;17.47;78.45;99129.56;5023058;28;20471;-86
2023/05/22 06:37:47;;;;;;;17.95;10.48;;;;;;;17.44;77.88;99142.47;5020570;28;20163;-87
2023/05/22 06:40:13;;;;;;;20.38;9.65;;;;;;;17.66;77.61;99132.16;5033773;28;20056;-86
2023/05/22 06:42:38;;;;;;;11.93;7.90;;;;;;;17.85;76.12;99135.94;5020596;28;20033;-86
2023/05/22 06:45:04;;;;;;;11.80;8.15;;;;;;;18.24;75.46;99121.25;5038194;28;20056;-86
2023/05/22 06:47:30;;;;;;;18.17;8.93;;;;;;;18.78;72.98;99140.53;5029466;28;20021;-87
2023/05/22 06:49:56;;;;;;;20.70;8.73;;;;;;;18.87;72.36;99142.97;5023543;28;20025;-85
2023/05/22 06:52:22;;;;;;;13.85;8.20;;;;;;;19.04;71.83;99146.28;5032997;28;20040;-86
2023/05/22 06:54:48;;;;;;;15.43;7.85;;;;;;;19.09;69.41;99134.56;5042613;28;20036;-86
2023/05/22 06:57:13;;;;;;;18.77;8.10;;;;;;;19.26;69.80;99150.00;5021203;28;20045;-86
2023/05/22 06:59:38;;;;;;;15.00;8.43;;;;;;;19.56;70.73;99150.84;5029752;28;20158;-86
2023/05/22 07:02:04;;;;;;;15.10;8.10;;;;;;;19.73;69.78;99147.19;5050018;28;20096;-84
2023/05/22 07:04:30;;;;;;;15.95;8.05;;;;;;;19.83;70.84;99144.75;5045845;28;20486;-84
2023/05/22 07:06:55;;;;;;;13.40;8.80;;;;;;;19.98;69.44;99140.69;5021645;28;20036;-83
2023/05/22 07:09:21;;;;;;;15.68;7.25;;;;;;;20.18;70.72;99143.09;5034260;28;20021;-86
2023/05/22 07:11:46;;;;;;;13.82;7.63;;;;;;;20.28;69.44;99133.75;5023041;28;20025;-84
2023/05/22 07:14:12;;;;;;;14.77;8.52;;;;;;;20.32;70.64;99140.22;5023169;28;20032;-85
2023/05/22 07:16:39;;;;;;;9.40;7.75;;;;;;;20.27;70.05;99125.63;5016660;28;20075;-87
2023/05/22 07:19:05;;;;;;;12.90;8.48;;;;;;;20.58;66.22;99140.94;5034619;28;20036;-86
2023/05/22 07:21:31;;;;;;;9.30;6.22;;;;;;;20.71;64.67;99151.88;5017383;28;20478;-83
2023/05/22 07:23:57;;;;;;;15.18;7.45;;;;;;;20.50;62.24;99139.34;5026753;28;20033;-85
2023/05/22 07:26:22;;;;;;;15.90;6.63;;;;;;;20.71;64.01;99143.34;5028604;28;20532;-85
2023/05/22 07:28:48;;;;;;;14.25;6.88;;;;;;;21.12;61.68;99144.78;5020369;28;20040;-85
2023/05/22 07:31:13;;;;;;;7.75;5.57;;;;;;;21.15;60.87;99122.03;5016359;28;20056;-86
2023/05/22 07:33:39;;;;;;;13.05;6.15;;;;;;;21.40;58.82;99148.66;5025745;28;20025;-85
2023/05/22 07:36:05;;;;;;;8.18;4.68;;;;;;;21.44;53.83;99152.31;5027956;28;20094;-86
2023/05/22 07:38:30;;;;;;;6.70;4.57;;;;;;;21.73;54.20;99146.41;5015790;28;20483;-86
2023/05/22 07:40:56;;;;;;;13.13;6.40;;;;;;;22.14;53.87;99144.81;5016194;28;20033;-85
2023/05/22 07:43:21;;;;;;;10.85;5.05;;;;;;;22.22;52.90;99145.56;5026227;28;20037;-87
2023/05/22 07:45:47;;;;;;;6.68;4.60;;;;;;;22.26;50.43;99144.28;5029363;28;20040;-86
2023/05/22 07:48:12;;;;;;;8.48;4.20;;;;;;;22.29;50.54;99143.44;5027392;28;20059;-87
2023/05/22 07:50:38;;;;;;;6.72;4.10;;;;;;;22.42;47.91;99140.03;5035176;28;20053;-86
2023/05/22 07:53:05;;;;;;;10.77;5.35;;;;;;;22.57;49.40;99144.38;5047963;28;20028;-86
2023/05/22 07:55:30;;;;;;;11.48;4.55;;;;;;;22.56;50.11;99142.78;5034271;28;20024;-86
2023/05/22 07:57:56;;;;;;;9.23;4.13;;;;;;;22.88;48.14;99148.47;5031189;28;20428;-86
2023/05/22 08:00:21;;;;;;;8.55;4.40;;;;;;;22.97;46.37;99145.91;5028946;28;20409;-87
2023/05/22 08:02:47;;;;;;;4.78;4.13;;;;;;;23.08;47.64;99148.63;5032393;28;20412;-87
2023/05/22 08:05:12;;;;;;;12.77;4.32;;;;;;;22.90;47.84;99149.69;5042126;28;20072;-87
2023/05/22 08:07:38;;;;;;;9.00;3.78;;;;;;;22.84;46.98;99146.50;5030546;28;20417;-85
2023/05/22 08:10:07;;;;;;;9.05;3.97;;;;;;;22.90;45.69;99146.81;5032898;28;20040;-88
2023/05/22 08:12:33;;;;;;;10.40;4.57;;;;;;;22.53;45.96;99120.81;5028480;28;20025;-87
2023/05/22 08:14:58;;;;;;;9.95;4.43;;;;;;;22.57;43.70;99120.78;5020344;28;20037;-88
2023/05/22 08:17:23;;;;;;;9.20;4.22;;;;;;;22.39;44.06;99140.91;5019397;28;20056;-88
2023/05/22 08:19:49;;;;;;;8.25;4.45;;;;;;;22.52;45.77;99138.34;5032768;28;20504;-87
2023/05/22 08:22:15;;;;;;;9.05;3.85;;;;;;;22.54;44.76;99150.13;5029199;28;20052;-86
2023/05/22 08:24:40;;;;;;;12.50;4.25;;;;;;;22.65;45.91;99142.25;5039832;28;20108;-85
2023/05/22 08:27:06;;;;;;;6.82;4.07;;;;;;;22.84;44.32;99152.19;5021536;28;20479;-85
2023/05/22 08:29:31;;;;;;;6.63;4.05;;;;;;;22.57;45.50;99135.03;5032828;28;20047;-87
2023/05/22 08:31:57;;;;;;;14.15;5.45;;;;;;;22.58;44.37;99151.69;5032220;28;20036;-86
2023/05/22 08:34:23;;;;;;;11.07;5.85;;;;;;;22.72;45.15;99156.41;5044951;28;20481;-87
2023/05/22 08:36:49;;;;;;;6.05;4.10;;;;;;;22.86;45.67;99152.56;5029599;28;20049;-87
2023/05/22 08:39:15;;;;;;;8.55;5.00;;;;;;;22.83;45.46;99144.06;5015300;28;20154;-88
2023/05/22 08:41:42;;;;;;;12.65;5.43;;;;;;;22.65;45.45;99150.81;5024743;28;20083;-86
2023/05/22 08:44:09;;;;;;;13.40;5.40;;;;;;;22.79;47.12;99149.78;5029482;28;20036;-87
2023/05/22 08:46:36;;;;;;;15.30;5.72;;;;;;;22.47;47.54;99131.03;5029721;28;20024;-86
2023/05/22 08:49:04;;;;;;;9.82;4.60;;;;;;;22.69;45.73;99150.78;5030425;28;20033;-86
2023/05/22 08:51:32;;;;;;;14.50;5.40;;;;;;;22.12;46.04;99145.22;5029778;28;20056;-86
2023/05/22 08:53:59;;;;;;;11.88;4.95;;;;;;;22.37;46.83;99127.06;5019045;28;20033;-85
2023/05/22 08:56:25;;;;;;;10.73;5.45;;;;;;;22.56;46.51;99110.59;5023892;28;20036;-87
2023/05/22 08:58:52;;;;;;;15.32;6.07;;;;;;;22.91;47.06;99141.91;5041721;28;20021;-86
2023/05/22 09:01:18;;;;;;;10.10;5.65;;;;;;;22.89;45.85;99130.97;5026779;28;20052;-87
2023/05/22 09:03:45;;;;;;;9.77;5.40;;;;;;;22.47;45.67;99136.75;5022265;28;20497;-87
2023/05/22 09:06:11;;;;;;;9.15;4.95;;;;;;;22.36;46.45;99127.50;5022349;28;20045;-86
2023/05/22 09:08:37;;;;;;;9.07;4.82;;;;;;;22.88;47.22;99129.34;5037515;28;20467;-85
2023/05/22 09:11:03;;;;;;;5.38;3.83;;;;;;;23.04;47.04;99125.84;5027067;28;20040;-86
2023/05/22 09:13:30;;;;;;;8.00;4.43;;;;;;;23.25;46.80;99129.63;5023570;28;20022;-86
2023/05/22 09:16:10;;;;;;;10.32;4.15;;;;;;;23.44;44.97;99122.44;5024583;28;20039;-86
2023/05/22 09:18:36;;;;;;;16.58;5.30;;;;;;;23.61;44.77;99123.38;5034838;28;20025;-87
2023/05/22 09:21:02;;;;;;;12.38;4.60;;;;;;;23.78;44.16;99120.69;5024326;28;20037;-86
2023/05/22 09:23:28;;;;;;;13.27;4.00;;;;;;;22.91;45.25;99127.66;5043915;28;20197;-85
2023/05/22 09:25:56;;;;;;;9.85;4.15;;;;;;;23.44;45.65;99124.50;5025399;28;20047;-86
2023/05/22 09:28:22;;;;;;;6.88;4.28;;;;;;;23.92;44.76;99111.03;5030557;28;20536;-85
2023/05/22 09:30:50;;;;;;;8.35;4.20;;;;;;;24.33;44.96;99120.50;5029282;28;20029;-84
2023/05/22 09:33:16;;;;;;;8.57;3.72;;;;;;;24.51;42.41;99120.97;5048193;28;20025;-86
2023/05/22 09:35:42;;;;;;;11.07;4.32;;;;;;;24.80;41.54;99119.59;5018274;28;20034;-85
2023/05/22 09:38:09;;;;;;;10.68;3.97;;;;;;;25.13;43.11;99111.06;5018801;28;20033;-85
2023/05/22 09:40:37;;;;;;;15.70;4.20;;;;;;;25.21;40.13;99126.00;5026643;28;20033;-85
2023/05/22 09:43:07;;;;;;;11.20;4.97;;;;;;;25.13;40.88;99113.16;5039803;28;20094;-86
2023/05/22 09:45:37;;;;;;;8.43;4.07;;;;;;;25.15;42.39;99127.81;5017989;28;20041;-85
2023/05/22 09:48:08;;;;;;;7.70;4.05;;;;;;;25.17;41.92;99117.53;5034000;28;20060;-86
2023/05/22 09:50:35;;;;;;;11.40;4.05;;;;;;;25.33;42.38;99125.31;5023474;28;20039;-86
2023/05/22 09:53:02;;;;;;;10.40;4.47;;;;;;;25.17;41.30;99120.41;5021515;28;20105;-83
2023/05/22 09:55:29;;;;;;;6.70;4.20;;;;;;;24.79;40.14;99115.09;5041041;28;20031;-84
2023/05/22 09:57:55;;;;;;;9.40;4.70;;;;;;;24.71;40.95;99117.28;5020879;28;20125;-83
2023/05/22 10:00:22;;;;;;;12.18;4.65;;;;;;;25.11;40.13;99115.66;5023166;28;20023;-85
2023/05/22 10:03:04;;;;;;;8.85;3.95;;;;;;;25.32;39.31;99108.63;5023481;28;20527;-84
2023/05/22 10:05:31;;;;;;;10.82;4.68;;;;;;;25.34;41.54;99097.53;5032604;28;20556;-85
2023/05/22 10:08:04;;;;;;;20.08;5.22;;;;;;;25.28;41.01;99108.69;5033882;28;20033;-84
2023/05/22 10:10:29;;;;;;;8.07;4.68;;;;;;;25.34;41.20;99108.97;5042864;28;20021;-84
2023/05/22 10:13:04;;;;;;;11.85;4.32;;;;;;;25.62;39.41;99101.75;5025167;28;20960;-84
2023/05/22 10:15:30;;;;;;;7.75;4.25;;;;;;;25.56;39.60;99102.75;5028142;28;20025;-83
2023/05/22 10:17:56;;;;;;;11.52;5.10;;;;;;;25.56;39.14;99089.22;5025954;28;20041;-84
2023/05/22 10:20:24;;;;;;;10.27;4.30;;;;;;;25.68;38.94;99090.56;5031171;28;20061;-86
2023/05/22 10:22:49;;;;;;;21.67;5.05;;;;;;;25.53;39.24;99087.25;5029627;28;20029;-84
2023/05/22 10:25:17;;;;;;;7.57;4.03;;;;;;;25.23;40.20;99081.41;5030507;28;20033;-85
2023/05/22 10:27:43;;;;;;;10.45;4.28;;;;;;;25.44;39.89;99087.06;5045970;28;20036;-86
2023/05/22 10:30:08;;;;;;;9.55;4.88;;;;;;;25.92;39.48;99090.38;5034583;28;20098;-86
2023/05/22 10:32:58;;;;;;;11.57;5.20;;;;;;;25.64;37.35;99096.38;5032553;28;20033;-85
2023/05/22 10:35:35;;;;;;;4.72;3.95;;;;;;;25.49;39.39;99084.50;5029718;28;20036;-85
2023/05/22 10:38:07;;;;;;;5.40;3.92;;;;;;;25.51;38.25;99075.47;5036037;28;20452;-84
2023/05/22 10:40:34;;;;;;;9.15;4.28;;;;;;;25.85;39.13;99093.41;5029276;28;20043;-85
2023/05/22 10:43:01;;;;;;;8.63;3.50;;;;;;;26.03;39.12;99087.19;5031211;28;21739;-83
2023/05/22 10:45:27;;;;;;;13.93;4.22;;;;;;;25.77;37.90;99081.34;5047208;28;20020;-83
2023/05/22 10:48:07;;;;;;;7.60;4.32;;;;;;;26.10;36.77;99087.03;5027291;28;20033;-84
2023/05/22 10:50:34;;;;;;;9.65;4.65;;;;;;;25.68;38.21;99093.44;5027463;28;20519;-86
2023/05/22 10:53:25;;;;;;;10.07;4.38;;;;;;;25.69;36.18;99085.63;5027045;28;20398;-85
2023/05/22 10:55:52;;;;;;;11.73;4.25;;;;;;;25.51;38.36;99081.97;5046558;28;20033;-84
2023/05/22 10:58:30;;;;;;;13.82;5.20;;;;;;;25.75;40.17;99073.19;5022304;28;20049;-84
2023/05/22 11:01:08;;;;;;;8.57;3.53;;;;;;;25.72;38.52;99076.97;5029998;28;20967;-84
2023/05/22 11:04:03;;;;;;;7.22;4.07;;;;;;;25.70;38.20;99067.19;5023067;28;20111;-84
2023/05/22 11:06:45;;;;;;;10.00;4.28;;;;;;;25.69;37.98;99051.28;5008594;28;20036;-85
2023/05/22 11:09:29;;;;;;;5.28;3.30;;;;;;;25.79;38.22;99050.19;5023853;28;20055;-85
2023/05/22 11:12:15;;;;;;;10.48;5.28;;;;;;;25.71;37.54;99058.16;5027635;28;20036;-85
2023/05/22 11:14:42;;;;;;;6.68;4.75;;;;;;;25.82;37.18;99057.09;5022214;28;20489;-85
2023/05/22 11:17:11;;;;;;;7.90;4.78;;;;;;;25.92;37.89;99051.06;5026921;28;20044;-85
2023/05/22 11:19:39;;;;;;;6.60;4.27;;;;;;;25.69;37.69;99054.97;5031442;28;20037;-85
2023/05/22 11:22:05;;;;;;;6.88;4.00;;;;;;;25.75;35.97;99035.19;5027283;28;20044;-85
2023/05/22 11:24:36;;;;;;;5.32;4.18;;;;;;;25.85;34.85;99048.41;5029274;28;20024;-85
2023/05/22 11:27:04;;;;;;;4.18;3.28;;;;;;;25.34;35.55;99043.97;5026938;28;20028;-85
2023/05/22 11:29:30;;;;;;;7.95;4.50;;;;;;;25.64;38.49;99052.63;5027450;28;20108;-85